createdAt,value
2018-03-06T00:00:42.353Z,82.55
2018-03-06T00:03:09.956Z,83.05
2018-03-06T00:05:37.519Z,83.38
2018-03-06T00:08:05.048Z,83.26
2018-03-06T00:10:32.580Z,83.35
2018-03-06T00:13:00.109Z,83.56
2018-03-06T00:15:27.651Z,83.58
2018-03-06T00:17:55.160Z,83.58
2018-03-06T00:20:22.699Z,83.43
2018-03-06T00:22:50.199Z,83.63
2018-03-06T00:25:17.723Z,83.44
2018-03-06T00:27:45.259Z,83.60
2018-03-06T00:30:12.784Z,83.51
2018-03-06T00:32:41.271Z,83.22
2018-03-06T00:35:09.744Z,82.56
2018-03-06T00:37:37.276Z,81.79
2018-03-06T00:40:05.006Z,80.04
2018-03-06T00:42:33.308Z,78.79
2018-03-06T00:45:00.942Z,78.80
2018-03-06T00:47:28.474Z,79.03
2018-03-06T00:49:55.982Z,79.21
2018-03-06T00:52:23.599Z,79.99
2018-03-06T00:54:51.111Z,80.40
2018-03-06T00:57:18.650Z,80.85
2018-03-06T00:59:46.172Z,81.17
2018-03-06T01:02:13.711Z,81.39
2018-03-06T01:04:41.316Z,81.76
2018-03-06T01:07:08.870Z,81.79
2018-03-06T01:09:36.384Z,82.20
2018-03-06T01:12:03.920Z,82.38
2018-03-06T01:14:31.447Z,82.40
2018-03-06T01:16:58.991Z,82.84
2018-03-06T01:19:26.584Z,83.21
2018-03-06T01:21:54.116Z,83.64
2018-03-06T01:24:21.644Z,83.77
2018-03-06T01:26:49.247Z,83.60
2018-03-06T01:29:16.821Z,83.75
2018-03-06T01:31:44.367Z,84.01
2018-03-06T01:34:11.901Z,84.15
2018-03-06T01:36:39.483Z,84.29
2018-03-06T01:39:07.055Z,84.26
2018-03-06T01:41:34.612Z,84.32
2018-03-06T01:44:02.172Z,84.52
2018-03-06T01:46:29.691Z,84.39
2018-03-06T01:48:57.219Z,83.90
2018-03-06T01:51:24.743Z,83.66
2018-03-06T01:53:52.275Z,83.55
2018-03-06T01:56:19.780Z,83.78
2018-03-06T01:58:47.329Z,83.89
2018-03-06T02:01:14.847Z,83.67
2018-03-06T02:03:42.444Z,83.77
2018-03-06T02:06:09.972Z,83.91
2018-03-06T02:08:37.560Z,83.96
2018-03-06T02:11:05.116Z,84.08
2018-03-06T02:13:32.673Z,84.37
2018-03-06T02:16:00.197Z,84.36
2018-03-06T02:18:27.796Z,84.31
2018-03-06T02:20:55.358Z,84.42
2018-03-06T02:23:22.890Z,84.51
2018-03-06T02:25:50.475Z,84.41
2018-03-06T02:28:18.048Z,84.38
2018-03-06T02:30:45.587Z,84.32
2018-03-06T02:33:13.095Z,83.92
2018-03-06T02:35:40.666Z,83.60
2018-03-06T02:38:08.167Z,83.10
2018-03-06T02:40:35.732Z,83.03
2018-03-06T02:43:03.263Z,83.15
2018-03-06T02:45:30.796Z,83.11
2018-03-06T02:47:58.300Z,83.21
2018-03-06T02:50:25.848Z,83.11
2018-03-06T02:52:53.368Z,83.08
2018-03-06T02:55:20.914Z,83.19
2018-03-06T02:57:48.457Z,83.13
2018-03-06T03:00:16.024Z,83.23
2018-03-06T03:02:43.585Z,83.57
2018-03-06T03:05:11.132Z,83.60
2018-03-06T03:07:38.700Z,83.62
2018-03-06T03:10:06.249Z,83.68
2018-03-06T03:12:33.780Z,83.54
2018-03-06T03:15:01.374Z,83.66
2018-03-06T03:17:28.896Z,83.62
2018-03-06T03:19:56.440Z,83.48
2018-03-06T03:22:23.960Z,83.52
2018-03-06T03:24:51.504Z,83.87
2018-03-06T03:27:19.068Z,84.36
2018-03-06T03:29:46.619Z,84.38
2018-03-06T03:32:14.163Z,84.22
2018-03-06T03:34:41.685Z,84.19
2018-03-06T03:37:09.304Z,84.27
2018-03-06T03:39:36.832Z,84.33
2018-03-06T03:42:04.531Z,84.39
2018-03-06T03:44:32.056Z,84.29
2018-03-06T03:46:59.591Z,83.94
2018-03-06T03:49:27.103Z,83.64
2018-03-06T03:51:54.648Z,83.30
2018-03-06T03:54:22.151Z,83.10
2018-03-06T03:56:49.683Z,83.18
2018-03-06T03:59:17.242Z,83.41
2018-03-06T04:01:44.791Z,83.47
2018-03-06T04:04:12.335Z,83.50
2018-03-06T04:06:39.871Z,83.48
2018-03-06T04:09:08.371Z,83.54
2018-03-06T04:11:36.072Z,83.59
2018-03-06T04:14:04.538Z,83.61
2018-03-06T04:16:33.031Z,83.81
2018-03-06T04:19:04.545Z,83.87
2018-03-06T04:21:32.249Z,83.71
2018-03-06T04:23:59.763Z,83.70
2018-03-06T04:26:27.315Z,83.54
2018-03-06T04:28:54.824Z,83.50
2018-03-06T04:31:22.361Z,83.64
2018-03-06T04:33:49.880Z,83.66
2018-03-06T04:36:17.399Z,83.43
2018-03-06T04:38:44.934Z,83.21
2018-03-06T04:41:12.468Z,82.83
2018-03-06T04:43:40.099Z,82.60
2018-03-06T04:46:07.736Z,82.49
2018-03-06T04:48:35.248Z,82.77
2018-03-06T04:51:02.778Z,82.97
2018-03-06T04:53:30.323Z,83.16
2018-03-06T04:55:57.847Z,83.52
2018-03-06T04:58:25.377Z,83.83
2018-03-06T05:00:52.892Z,83.92
2018-03-06T05:03:20.456Z,83.87
2018-03-06T05:05:47.989Z,83.84
2018-03-06T05:08:15.523Z,83.99
2018-03-06T05:10:43.033Z,84.04
2018-03-06T05:13:10.583Z,84.47
2018-03-06T05:15:38.095Z,84.79
2018-03-06T05:18:05.627Z,84.71
2018-03-06T05:20:33.145Z,84.63
2018-03-06T05:23:00.726Z,84.48
2018-03-06T05:25:28.247Z,84.34
2018-03-06T05:27:55.781Z,84.29
2018-03-06T05:30:23.333Z,84.39
2018-03-06T05:32:50.866Z,84.62
2018-03-06T05:35:18.431Z,84.68
2018-03-06T05:37:45.976Z,84.71
2018-03-06T05:40:13.512Z,84.89
2018-03-06T05:42:41.052Z,84.99
2018-03-06T05:45:08.572Z,85.01
2018-03-06T05:47:36.115Z,85.27
2018-03-06T05:50:03.679Z,85.51
2018-03-06T05:52:31.848Z,85.43
2018-03-06T05:54:59.404Z,85.65
2018-03-06T05:57:26.975Z,85.79
2018-03-06T05:59:54.540Z,85.92
2018-03-06T06:02:22.061Z,85.97
2018-03-06T06:04:49.596Z,86.00
2018-03-06T06:07:17.212Z,85.87
2018-03-06T06:09:45.608Z,85.77
2018-03-06T06:12:13.147Z,85.81
2018-03-06T06:14:40.695Z,85.76
2018-03-06T06:17:08.184Z,85.82
2018-03-06T06:19:35.695Z,85.65
2018-03-06T06:22:03.179Z,85.52
2018-03-06T06:24:30.788Z,85.34
2018-03-06T06:26:58.228Z,85.34
2018-03-06T06:29:25.763Z,85.10
2018-03-06T06:31:53.329Z,85.11
2018-03-06T06:34:20.986Z,84.70
2018-03-06T06:36:48.483Z,84.40
2018-03-06T06:39:16.014Z,83.63
2018-03-06T06:41:43.563Z,82.82
2018-03-06T06:44:11.123Z,82.46
2018-03-06T06:46:38.683Z,81.82
2018-03-06T06:49:06.200Z,81.56
2018-03-06T06:51:33.715Z,80.79
2018-03-06T06:54:01.248Z,80.52
2018-03-06T06:56:28.816Z,80.55
2018-03-06T06:58:56.332Z,80.38
2018-03-06T07:01:23.824Z,79.96
2018-03-06T07:03:51.344Z,79.75
2018-03-06T07:06:18.844Z,79.47
2018-03-06T07:08:46.341Z,78.83
2018-03-06T07:11:13.862Z,78.49
2018-03-06T07:13:41.432Z,77.47
2018-03-06T07:16:08.997Z,76.59
2018-03-06T07:18:36.500Z,75.44
2018-03-06T07:21:04.017Z,75.06
2018-03-06T07:23:31.515Z,74.22
2018-03-06T07:26:00.044Z,73.78
2018-03-06T07:28:27.532Z,73.54
2018-03-06T07:30:55.057Z,73.05
2018-03-06T07:33:22.615Z,72.48
2018-03-06T07:35:50.179Z,72.92
2018-03-06T07:38:17.673Z,72.15
2018-03-06T07:40:45.223Z,71.91
2018-03-06T07:43:12.764Z,71.57
2018-03-06T07:45:40.291Z,70.21
2018-03-06T07:48:07.883Z,69.55
2018-03-06T07:50:35.402Z,68.73
2018-03-06T07:53:02.935Z,67.60
2018-03-06T07:55:30.564Z,67.11
2018-03-06T07:57:58.081Z,66.36
2018-03-06T08:00:25.596Z,67.05
2018-03-06T08:02:53.092Z,65.87
2018-03-06T08:05:20.618Z,65.78
2018-03-06T08:07:48.156Z,64.90
2018-03-06T08:10:15.715Z,63.73
2018-03-06T08:12:43.281Z,63.86
2018-03-06T08:15:10.831Z,62.76
2018-03-06T08:17:38.354Z,61.36
2018-03-06T08:20:05.836Z,61.39
2018-03-06T08:22:33.513Z,60.95
2018-03-06T08:25:01.008Z,59.90
2018-03-06T08:27:28.523Z,59.86
2018-03-06T08:29:56.099Z,60.26
2018-03-06T08:32:23.663Z,58.56
2018-03-06T08:34:51.157Z,58.82
2018-03-06T08:37:18.775Z,58.26
2018-03-06T08:39:46.289Z,57.59
2018-03-06T08:42:13.809Z,57.23
2018-03-06T08:44:41.356Z,56.45
2018-03-06T08:47:08.883Z,56.90
2018-03-06T08:49:36.385Z,54.61
2018-03-06T08:52:03.900Z,54.69
2018-03-06T08:54:31.512Z,53.88
2018-03-06T08:56:59.100Z,53.61
2018-03-06T08:59:26.625Z,53.36
2018-03-06T09:01:54.144Z,54.53
2018-03-06T09:04:21.680Z,53.82
2018-03-06T09:06:49.201Z,53.59
2018-03-06T09:09:16.744Z,54.68
2018-03-06T09:11:44.303Z,56.27
2018-03-06T09:14:11.827Z,54.45
2018-03-06T09:16:39.352Z,54.55
2018-03-06T09:19:06.860Z,54.90
2018-03-06T09:21:34.445Z,54.42
2018-03-06T09:24:02.000Z,54.65
2018-03-06T09:26:29.563Z,54.65
2018-03-06T09:28:57.084Z,53.97
2018-03-06T09:31:24.580Z,54.89
2018-03-06T09:33:52.096Z,55.50
2018-03-06T09:36:19.596Z,53.68
2018-03-06T09:38:47.128Z,53.69
2018-03-06T09:41:14.628Z,52.63
2018-03-06T09:43:42.171Z,51.87
2018-03-06T09:46:09.663Z,52.27
2018-03-06T09:48:37.199Z,51.95
2018-03-06T09:51:04.741Z,52.68
2018-03-06T09:53:32.248Z,51.51
2018-03-06T09:55:59.743Z,50.78
2018-03-06T09:58:27.329Z,50.92
2018-03-06T10:00:54.827Z,50.21
2018-03-06T10:03:22.355Z,49.90
2018-03-06T10:05:49.856Z,49.61
2018-03-06T10:08:17.376Z,49.02
2018-03-06T10:10:44.876Z,48.71
2018-03-06T10:13:12.392Z,49.57
2018-03-06T10:15:39.899Z,49.50
2018-03-06T10:18:07.513Z,49.83
2018-03-06T10:20:35.075Z,48.47
2018-03-06T10:23:02.592Z,49.02
2018-03-06T10:25:30.191Z,48.36
2018-03-06T10:27:57.713Z,48.83
2018-03-06T10:30:25.215Z,48.45
2018-03-06T10:32:52.732Z,47.45
2018-03-06T10:35:20.323Z,46.24
2018-03-06T10:37:47.822Z,46.75
2018-03-06T10:40:15.392Z,46.08
2018-03-06T10:42:42.997Z,45.99
2018-03-06T10:45:10.515Z,46.45
2018-03-06T10:47:38.016Z,48.03
2018-03-06T10:50:05.573Z,47.82
2018-03-06T10:52:33.664Z,47.60
2018-03-06T10:55:01.189Z,48.16
2018-03-06T10:57:28.684Z,48.19
2018-03-06T10:59:56.332Z,49.26
2018-03-06T11:02:29.396Z,48.06
2018-03-06T11:04:56.916Z,47.09
2018-03-06T11:07:24.431Z,46.94
2018-03-06T11:09:51.944Z,46.57
2018-03-06T11:12:19.448Z,45.41
2018-03-06T11:14:47.035Z,45.62
2018-03-06T11:17:14.535Z,44.64
2018-03-06T11:19:42.131Z,45.07
2018-03-06T11:22:09.629Z,43.93
2018-03-06T11:24:37.160Z,43.73
2018-03-06T11:27:04.653Z,43.68
2018-03-06T11:29:32.171Z,44.15
2018-03-06T11:31:59.675Z,43.67
2018-03-06T11:34:27.300Z,43.50
2018-03-06T11:36:54.791Z,43.78
2018-03-06T11:39:22.316Z,44.88
2018-03-06T11:41:49.832Z,43.88
2018-03-06T11:44:17.414Z,44.38
2018-03-06T11:46:44.979Z,44.55
2018-03-06T11:49:12.473Z,44.25
2018-03-06T11:51:39.999Z,44.38
2018-03-06T11:54:07.493Z,43.62
2018-03-06T11:56:35.138Z,42.28
2018-03-06T11:59:02.675Z,41.33
2018-03-06T12:01:30.231Z,41.94
2018-03-06T12:03:57.806Z,41.25
2018-03-06T12:06:25.328Z,42.16
2018-03-06T12:08:52.832Z,42.18
2018-03-06T12:11:20.367Z,43.64
2018-03-06T12:13:47.944Z,43.55
2018-03-06T12:16:15.540Z,43.96
2018-03-06T12:18:43.024Z,45.05
2018-03-06T12:21:10.733Z,46.68
2018-03-06T12:23:38.315Z,47.30
2018-03-06T12:26:06.083Z,47.40
2018-03-06T12:28:33.603Z,46.33
2018-03-06T12:31:01.121Z,46.73
2018-03-06T12:33:28.717Z,47.85
2018-03-06T12:35:56.230Z,48.32
2018-03-06T12:38:23.749Z,48.84
2018-03-06T12:40:51.287Z,49.01
2018-03-06T12:43:18.854Z,48.92
2018-03-06T12:45:46.426Z,48.94
2018-03-06T12:48:13.913Z,48.36
2018-03-06T12:50:41.428Z,47.65
2018-03-06T12:53:08.916Z,47.96
2018-03-06T12:55:36.456Z,47.06
2018-03-06T12:58:03.958Z,47.43
2018-03-06T13:00:31.485Z,47.43
2018-03-06T13:02:58.971Z,48.09
2018-03-06T13:05:26.468Z,48.34
2018-03-06T13:07:54.962Z,48.39
2018-03-06T13:10:22.447Z,48.95
2018-03-06T13:12:49.976Z,47.30
2018-03-06T13:15:17.479Z,46.70
2018-03-06T13:17:44.995Z,44.80
2018-03-06T13:20:12.504Z,43.77
2018-03-06T13:22:41.036Z,41.84
2018-03-06T13:25:08.524Z,40.94
2018-03-06T13:27:36.043Z,40.83
2018-03-06T13:30:03.619Z,42.34
2018-03-06T13:32:31.139Z,42.98
2018-03-06T13:34:58.726Z,42.22
2018-03-06T13:37:26.299Z,42.84
2018-03-06T13:39:53.809Z,43.30
2018-03-06T13:42:21.417Z,43.85
2018-03-06T13:44:48.975Z,45.10
2018-03-06T13:47:16.540Z,47.91
2018-03-06T13:49:44.041Z,49.16
2018-03-06T13:52:11.697Z,50.69
2018-03-06T13:54:39.285Z,51.50
2018-03-06T13:57:06.944Z,52.59
2018-03-06T13:59:34.499Z,53.39
2018-03-06T14:02:02.098Z,54.36
2018-03-06T14:04:29.595Z,54.79
2018-03-06T14:06:57.114Z,55.63
2018-03-06T14:09:24.595Z,56.08
2018-03-06T14:11:52.104Z,56.59
2018-03-06T14:14:19.692Z,57.60
2018-03-06T14:16:47.272Z,58.20
2018-03-06T14:19:14.775Z,58.53
2018-03-06T14:21:42.280Z,58.95
2018-03-06T14:24:09.768Z,59.40
2018-03-06T14:26:37.300Z,58.99
2018-03-06T14:29:04.788Z,59.15
2018-03-06T14:31:32.282Z,59.67
2018-03-06T14:33:59.795Z,59.59
2018-03-06T14:36:27.341Z,59.84
2018-03-06T14:38:54.867Z,60.24
2018-03-06T14:41:22.353Z,60.68
2018-03-06T14:43:49.903Z,60.63
2018-03-06T14:46:17.387Z,60.89
2018-03-06T14:48:44.928Z,61.19
2018-03-06T14:51:12.537Z,63.21
2018-03-06T14:53:40.036Z,63.57
2018-03-06T14:56:07.607Z,64.56
2018-03-06T14:58:35.163Z,64.89
2018-03-06T15:01:02.651Z,66.88
2018-03-06T15:03:30.183Z,67.08
2018-03-06T15:05:58.610Z,68.31
2018-03-06T15:08:26.233Z,68.99
2018-03-06T15:10:53.715Z,68.88
2018-03-06T15:13:21.231Z,70.25
2018-03-06T15:15:48.791Z,69.77
2018-03-06T15:18:16.304Z,70.13
2018-03-06T15:20:43.793Z,70.13
2018-03-06T15:23:11.300Z,70.36
2018-03-06T15:25:38.796Z,70.60
2018-03-06T15:28:06.301Z,70.67
2018-03-06T15:30:33.796Z,70.56
2018-03-06T15:33:01.306Z,71.05
2018-03-06T15:35:28.791Z,70.87
2018-03-06T15:37:56.311Z,70.51
2018-03-06T15:40:23.827Z,71.05
2018-03-06T15:42:51.365Z,70.17
2018-03-06T15:45:18.880Z,70.79
2018-03-06T15:47:46.464Z,71.13
2018-03-06T15:50:13.984Z,71.93
2018-03-06T15:52:41.464Z,71.98
2018-03-06T15:55:08.967Z,72.63
2018-03-06T15:57:36.469Z,72.89
2018-03-06T16:00:04.056Z,73.79
2018-03-06T16:02:31.772Z,74.33
2018-03-06T16:04:59.280Z,74.09
2018-03-06T16:07:26.762Z,74.92
2018-03-06T16:09:54.286Z,76.19
2018-03-06T16:12:21.777Z,76.42
2018-03-06T16:14:49.296Z,76.59
2018-03-06T16:17:16.793Z,76.47
2018-03-06T16:19:44.340Z,76.37
2018-03-06T16:22:11.909Z,76.14
2018-03-06T16:24:39.416Z,75.50
2018-03-06T16:27:06.908Z,76.18
2018-03-06T16:29:34.459Z,76.44
2018-03-06T16:32:01.962Z,77.15
2018-03-06T16:34:29.471Z,77.28
2018-03-06T16:36:57.047Z,77.47
2018-03-06T16:39:24.556Z,77.59
2018-03-06T16:41:52.056Z,76.96
2018-03-06T16:44:19.560Z,76.70
2018-03-06T16:46:47.050Z,76.79
2018-03-06T16:49:14.535Z,77.01
2018-03-06T16:51:42.040Z,77.82
2018-03-06T16:54:09.555Z,78.37
2018-03-06T16:56:37.103Z,77.87
2018-03-06T16:59:04.585Z,77.70
2018-03-06T17:01:32.117Z,77.76
2018-03-06T17:03:59.603Z,78.39
2018-03-06T17:06:27.120Z,78.41
2018-03-06T17:08:54.598Z,76.72
2018-03-06T17:11:22.128Z,77.54
2018-03-06T17:13:49.628Z,76.23
2018-03-06T17:16:17.290Z,76.60
2018-03-06T17:18:44.780Z,76.87
2018-03-06T17:21:12.297Z,77.96
2018-03-06T17:23:39.868Z,78.38
2018-03-06T17:26:07.395Z,77.60
2018-03-06T17:28:34.879Z,77.48
2018-03-06T17:31:02.392Z,77.76
2018-03-06T17:33:29.915Z,77.89
2018-03-06T17:35:57.483Z,77.73
2018-03-06T17:38:24.982Z,78.38
2018-03-06T17:40:52.572Z,77.94
2018-03-06T17:43:20.059Z,77.45
2018-03-06T17:45:47.614Z,77.08
2018-03-06T17:48:15.115Z,77.69
2018-03-06T17:50:42.719Z,77.59
2018-03-06T17:53:10.224Z,77.41
2018-03-06T17:55:37.732Z,77.17
2018-03-06T17:58:05.240Z,77.79
2018-03-06T18:00:32.725Z,77.68
2018-03-06T18:03:00.299Z,78.25
2018-03-06T18:05:27.792Z,78.49
2018-03-06T18:07:55.316Z,79.31
2018-03-06T18:10:22.803Z,79.97
2018-03-06T18:12:50.346Z,80.54
2018-03-06T18:15:17.872Z,81.16
2018-03-06T18:17:45.455Z,80.64
2018-03-06T18:20:12.944Z,81.06
2018-03-06T18:22:40.480Z,81.52
2018-03-06T18:25:07.976Z,82.00
2018-03-06T18:27:35.487Z,81.26
2018-03-06T18:30:02.981Z,81.55
2018-03-06T18:32:30.551Z,82.01
2018-03-06T18:34:58.069Z,81.85
2018-03-06T18:37:25.643Z,81.46
2018-03-06T18:39:53.216Z,81.64
2018-03-06T18:42:20.757Z,82.12
2018-03-06T18:44:48.248Z,82.43
2018-03-06T18:47:15.764Z,82.62
2018-03-06T18:50:02.102Z,82.81
2018-03-06T18:52:29.850Z,82.35
2018-03-06T18:54:57.332Z,82.21
2018-03-06T18:57:24.861Z,82.00
2018-03-06T19:03:09.318Z,81.11
2018-03-06T19:06:03.613Z,81.27
2018-03-06T19:08:31.178Z,81.59
2018-03-06T19:10:58.724Z,79.87
2018-03-06T19:13:26.290Z,80.79
2018-03-06T19:15:53.775Z,79.68
2018-03-06T19:18:21.296Z,80.30
2018-03-06T19:20:49.076Z,80.46
2018-03-06T19:23:16.583Z,81.49
2018-03-06T19:25:44.152Z,81.51
2018-03-06T19:28:11.747Z,81.58
2018-03-06T19:30:39.240Z,81.73
2018-03-06T19:33:06.872Z,81.34
2018-03-06T19:35:34.368Z,81.75
2018-03-06T19:38:01.875Z,81.70
2018-03-06T19:40:29.355Z,82.38
2018-03-06T19:42:56.864Z,82.37
2018-03-06T19:45:24.388Z,82.11
2018-03-06T19:47:51.928Z,81.95
2018-03-06T19:50:19.438Z,82.21
2018-03-06T19:52:46.974Z,81.92
2018-03-06T19:55:14.455Z,81.28
2018-03-06T19:57:41.955Z,81.47
2018-03-06T20:00:09.515Z,81.53
2018-03-06T20:02:37.027Z,81.91
2018-03-06T20:05:04.509Z,82.68
2018-03-06T20:07:32.057Z,82.83
2018-03-06T20:09:59.588Z,82.49
2018-03-06T20:12:27.423Z,82.45
2018-03-06T20:15:00.529Z,83.12
2018-03-06T20:17:28.051Z,83.54
2018-03-06T20:19:55.555Z,83.98
2018-03-06T20:22:23.049Z,84.13
2018-03-06T20:24:56.212Z,84.35
2018-03-06T20:27:23.695Z,84.03
2018-03-06T20:29:51.191Z,83.76
2018-03-06T20:32:24.240Z,83.86
2018-03-06T20:34:51.754Z,83.84
2018-03-06T20:37:19.298Z,83.72
2018-03-06T20:39:52.492Z,83.48
2018-03-06T20:42:19.983Z,83.37
2018-03-06T20:44:47.508Z,83.52
2018-03-06T20:47:20.681Z,83.81
2018-03-06T20:49:48.187Z,83.88
2018-03-06T20:52:15.728Z,84.08
2018-03-06T20:54:48.785Z,84.60
2018-03-06T20:57:16.271Z,84.84
2018-03-06T20:59:43.780Z,84.91
2018-03-06T21:02:11.269Z,85.27
2018-03-06T21:04:38.785Z,85.38
2018-03-06T21:07:06.272Z,85.32
2018-03-06T21:09:33.856Z,85.67
2018-03-06T21:12:01.353Z,85.88
2018-03-06T21:14:28.882Z,86.18
2018-03-06T21:16:56.383Z,86.24
2018-03-06T21:19:24.051Z,86.48
2018-03-06T21:21:51.534Z,86.49
2018-03-06T21:24:19.120Z,87.00
2018-03-06T21:26:47.722Z,86.83
2018-03-06T21:29:15.265Z,86.86
2018-03-06T21:31:42.743Z,87.04
2018-03-06T21:34:10.283Z,87.02
2018-03-06T21:36:37.781Z,86.96
2018-03-06T21:39:05.302Z,86.95
2018-03-06T21:41:32.783Z,87.09
2018-03-06T21:44:01.219Z,87.20
2018-03-06T21:46:28.896Z,87.24
2018-03-06T21:48:56.391Z,87.24
2018-03-06T21:51:23.913Z,87.28
2018-03-06T21:53:52.364Z,87.29
2018-03-06T21:56:19.882Z,87.35
2018-03-06T21:58:47.533Z,87.37
2018-03-06T22:01:15.075Z,87.26
2018-03-06T22:03:42.558Z,87.23
2018-03-06T22:06:10.084Z,87.33
2018-03-06T22:08:37.575Z,87.43
2018-03-06T22:11:05.108Z,87.47
2018-03-06T22:13:32.591Z,87.27
2018-03-06T22:16:00.124Z,87.06
2018-03-06T22:18:27.680Z,87.22
2018-03-06T22:20:55.244Z,87.42
2018-03-06T22:23:22.727Z,87.17
2018-03-06T22:25:50.244Z,87.38
2018-03-06T22:28:17.826Z,87.25
2018-03-06T22:30:45.384Z,87.40
2018-03-06T22:33:12.879Z,87.46
2018-03-06T22:35:40.387Z,88.14
2018-03-06T22:38:07.872Z,88.01
2018-03-06T22:40:35.393Z,87.82
2018-03-06T22:43:02.881Z,87.91
2018-03-06T22:45:30.378Z,87.74
2018-03-06T22:47:57.883Z,88.20
2018-03-06T22:50:25.368Z,88.20
2018-03-06T22:52:52.912Z,87.89
2018-03-06T22:55:20.420Z,87.88
2018-03-06T22:57:47.936Z,88.05
2018-03-06T23:00:15.435Z,88.02
2018-03-06T23:02:42.962Z,87.99
2018-03-06T23:05:10.471Z,88.26
2018-03-06T23:07:37.995Z,87.99
2018-03-06T23:10:05.561Z,87.92
2018-03-06T23:12:33.055Z,88.07
2018-03-06T23:15:00.545Z,88.15
2018-03-06T23:17:28.071Z,88.08
2018-03-06T23:19:55.563Z,88.29
2018-03-06T23:22:23.072Z,88.25
2018-03-06T23:24:50.559Z,88.46
2018-03-06T23:27:18.067Z,89.23
2018-03-06T23:29:45.562Z,89.27
2018-03-06T23:32:13.099Z,89.08
2018-03-06T23:34:42.480Z,88.54
2018-03-06T23:37:10.910Z,88.22
2018-03-06T23:39:38.946Z,88.13
2018-03-06T23:42:06.455Z,88.13
2018-03-06T23:44:33.967Z,88.21
2018-03-06T23:47:01.486Z,88.59
2018-03-06T23:49:28.976Z,88.66
2018-03-06T23:51:56.497Z,88.58
2018-03-06T23:54:23.989Z,88.78
2018-03-06T23:56:51.510Z,88.51
2018-03-06T23:59:19.040Z,88.44
